Time,TemperatureF,DewpointF,PressureIn,WindDirection,WindDirectionDegrees,WindSpeedMPH,WindSpeedGustMPH,Humidity,HourlyPrecipIn,Conditions,Clouds,dailyrainin,SoftwareType,DateUTC
2013-09-18 13:37:00,61.0,42.0,29.82,ENE,67,7.0,7.0,50,0.00,,,0.00,Rainwise IP-100,2013-09-18 17:37:00,
2013-09-18 13:42:00,69.0,47.0,29.66,West,270,5.0,8.0,46,0.00,,,0.00,Rainwise IP-100,2013-09-18 17:42:00,
2013-09-18 13:45:00,69.0,47.0,29.66,West,270,8.0,8.0,46,0.00,,,0.00,Rainwise IP-100,2013-09-18 17:45:00,
2013-09-18 13:47:00,69.0,45.0,29.65,West,270,5.0,8.0,42,0.00,,,0.00,Rainwise IP-100,2013-09-18 17:47:00,
2013-09-18 13:51:00,69.0,45.0,29.65,West,270,5.0,8.0,42,0.00,,,0.00,Rainwise IP-100,2013-09-18 17:51:00,
2013-09-18 13:56:00,70.0,50.0,29.65,WSW,247,4.0,8.0,48,0.00,,,0.00,Rainwise IP-100,2013-09-18 17:56:00,
2013-09-18 14:00:00,70.0,50.0,29.65,WSW,247,5.0,6.0,48,0.00,,,0.00,Rainwise IP-100,2013-09-18 18:00:00,
2013-09-18 14:02:00,69.0,44.0,29.65,West,270,3.0,6.0,41,0.00,,,0.00,Rainwise IP-100,2013-09-18 18:02:00,
2013-09-18 14:07:00,69.0,46.0,29.65,WSW,247,7.0,14.0,43,0.00,,,0.00,Rainwise IP-100,2013-09-18 18:07:00,
2013-09-18 14:12:00,69.0,46.0,29.64,West,270,5.0,12.0,43,0.00,,,0.00,Rainwise IP-100,2013-09-18 18:12:00,
2013-09-18 14:15:00,69.0,47.0,29.64,SW,225,8.0,12.0,47,0.00,,,0.00,Rainwise IP-100,2013-09-18 18:15:00,
2013-09-18 14:16:00,69.0,47.0,29.64,SW,225,8.0,11.0,47,0.00,,,0.00,Rainwise IP-100,2013-09-18 18:16:00,
2013-09-18 14:21:00,70.0,48.0,29.63,West,270,5.0,13.0,46,0.00,,,0.00,Rainwise IP-100,2013-09-18 18:21:00,
2013-09-18 14:26:00,70.0,50.0,29.63,West,270,3.0,8.0,48,0.00,,,0.00,Rainwise IP-100,2013-09-18 18:26:00,
2013-09-18 14:29:00,71.0,50.0,29.63,WSW,247,10.0,10.0,47,0.00,,,0.00,Rainwise IP-100,2013-09-18 18:29:00,
2013-09-18 14:31:00,70.0,47.0,29.63,West,270,10.0,10.0,43,0.00,,,0.00,Rainwise IP-100,2013-09-18 18:31:00,
2013-09-18 14:36:00,70.0,50.0,29.63,West,270,3.0,13.0,48,0.00,,,0.00,Rainwise IP-100,2013-09-18 18:36:00,
2013-09-18 14:41:00,70.0,51.0,29.63,SW,225,4.0,10.0,51,0.00,,,0.00,Rainwise IP-100,2013-09-18 18:41:00,
2013-09-18 14:46:00,71.0,50.0,29.63,West,270,5.0,10.0,48,0.00,,,0.00,Rainwise IP-100,2013-09-18 18:46:00,
2013-09-18 14:51:00,71.0,47.0,29.63,West,270,8.0,10.0,44,0.00,,,0.00,Rainwise IP-100,2013-09-18 18:51:00,
2013-09-18 14:52:00,71.0,48.0,29.63,West,270,5.0,10.0,45,0.00,,,0.00,Rainwise IP-100,2013-09-18 18:52:00,
2013-09-18 14:57:00,70.0,49.0,29.63,West,270,1.0,13.0,47,0.00,,,0.00,Rainwise IP-100,2013-09-18 18:57:00,
2013-09-18 14:59:00,71.0,48.0,29.62,SSW,202,6.0,13.0,45,0.00,,,0.00,Rainwise IP-100,2013-09-18 18:59:00,
2013-09-18 15:00:00,71.0,48.0,29.62,SW,225,8.0,13.0,45,0.00,,,0.00,Rainwise IP-100,2013-09-18 19:00:00,
2013-09-18 15:04:00,70.0,48.0,29.62,West,270,4.0,11.0,46,0.00,,,0.00,Rainwise IP-100,2013-09-18 19:04:00,
2013-09-18 15:07:00,71.0,52.0,29.62,WSW,247,6.0,11.0,51,0.00,,,0.00,Rainwise IP-100,2013-09-18 19:07:00,
2013-09-18 15:09:00,71.0,48.0,29.62,West,270,4.0,10.0,45,0.00,,,0.00,Rainwise IP-100,2013-09-18 19:09:00,
2013-09-18 15:14:00,71.0,50.0,29.62,WSW,247,1.0,12.0,49,0.00,,,0.00,Rainwise IP-100,2013-09-18 19:14:00,
2013-09-18 15:16:00,71.0,51.0,29.62,West,270,3.0,11.0,50,0.00,,,0.00,Rainwise IP-100,2013-09-18 19:16:00,
2013-09-18 15:21:00,71.0,50.0,29.62,SW,225,2.0,8.0,48,0.00,,,0.00,Rainwise IP-100,2013-09-18 19:21:00,
2013-09-18 15:26:00,72.0,53.0,29.62,West,270,3.0,6.0,50,0.00,,,0.00,Rainwise IP-100,2013-09-18 19:26:00,
2013-09-18 15:31:00,72.0,53.0,29.61,SW,225,5.0,12.0,51,0.00,,,0.00,Rainwise IP-100,2013-09-18 19:31:00,
2013-09-18 15:36:00,71.0,51.0,29.61,West,270,5.0,10.0,50,0.00,,,0.00,Rainwise IP-100,2013-09-18 19:36:00,
2013-09-18 15:41:00,71.0,54.0,29.61,SW,225,6.0,10.0,55,0.00,,,0.00,Rainwise IP-100,2013-09-18 19:41:00,
2013-09-18 15:46:00,71.0,54.0,29.61,West,270,2.0,10.0,55,0.00,,,0.00,Rainwise IP-100,2013-09-18 19:46:00,
2013-09-18 15:51:00,71.0,50.0,29.61,West,270,5.0,8.0,48,0.00,,,0.00,Rainwise IP-100,2013-09-18 19:51:00,
2013-09-18 15:55:00,71.0,49.0,29.61,West,270,5.0,10.0,46,0.00,,,0.00,Rainwise IP-100,2013-09-18 19:55:00,
2013-09-18 16:00:00,70.0,49.0,29.61,West,270,4.0,11.0,47,0.00,,,0.00,Rainwise IP-100,2013-09-18 20:00:00,
2013-09-18 16:05:00,70.0,50.0,29.61,West,270,9.0,10.0,48,0.00,,,0.00,Rainwise IP-100,2013-09-18 20:05:00,
2013-09-18 16:06:00,70.0,50.0,29.61,West,270,9.0,10.0,48,0.00,,,0.00,Rainwise IP-100,2013-09-18 20:06:00,
2013-09-18 16:09:00,71.0,53.0,29.60,WSW,247,5.0,11.0,53,0.00,,,0.00,Rainwise IP-100,2013-09-18 20:09:00,
2013-09-18 16:12:00,71.0,52.0,29.60,West,270,5.0,9.0,51,0.00,,,0.00,Rainwise IP-100,2013-09-18 20:12:00,
2013-09-18 16:15:00,71.0,54.0,29.60,West,270,7.0,9.0,55,0.00,,,0.00,Rainwise IP-100,2013-09-18 20:15:00,
2013-09-18 16:17:00,71.0,53.0,29.60,SW,225,6.0,10.0,54,0.00,,,0.00,Rainwise IP-100,2013-09-18 20:17:00,
2013-09-18 16:20:00,71.0,53.0,29.60,WSW,247,7.0,10.0,54,0.00,,,0.00,Rainwise IP-100,2013-09-18 20:20:00,
2013-09-18 16:22:00,71.0,53.0,29.60,SW,225,7.0,7.0,54,0.00,,,0.00,Rainwise IP-100,2013-09-18 20:22:00,
2013-09-18 16:27:00,71.0,53.0,29.60,SW,225,7.0,7.0,54,0.00,,,0.00,Rainwise IP-100,2013-09-18 20:27:00,
2013-09-18 16:32:00,72.0,54.0,29.60,SW,225,4.0,7.0,55,0.00,,,0.00,Rainwise IP-100,2013-09-18 20:32:00,
2013-09-18 16:37:00,71.0,53.0,29.60,WSW,247,6.0,6.0,54,0.00,,,0.00,Rainwise IP-100,2013-09-18 20:37:00,
2013-09-18 16:42:00,71.0,56.0,29.60,SW,225,1.0,6.0,60,0.00,,,0.00,Rainwise IP-100,2013-09-18 20:42:00,
2013-09-18 16:45:00,72.0,55.0,29.60,SW,225,4.0,6.0,56,0.00,,,0.00,Rainwise IP-100,2013-09-18 20:45:00,
2013-09-18 16:48:00,72.0,55.0,29.60,SW,225,4.0,5.0,56,0.00,,,0.00,Rainwise IP-100,2013-09-18 20:48:00,
2013-09-18 16:50:00,72.0,55.0,29.60,WSW,247,4.0,5.0,56,0.00,,,0.00,Rainwise IP-100,2013-09-18 20:50:00,
2013-09-18 16:51:00,72.0,55.0,29.60,SW,225,4.0,5.0,56,0.00,,,0.00,Rainwise IP-100,2013-09-18 20:51:00,
2013-09-18 16:56:00,71.0,54.0,29.60,WSW,247,8.0,9.0,55,0.00,,,0.00,Rainwise IP-100,2013-09-18 20:56:00,
2013-09-18 16:59:00,71.0,54.0,29.60,West,270,5.0,9.0,55,0.00,,,0.00,Rainwise IP-100,2013-09-18 20:59:00,
2013-09-18 17:01:00,69.0,50.0,29.59,West,270,9.0,10.0,51,0.00,,,0.00,Rainwise IP-100,2013-09-18 21:01:00,
2013-09-18 17:03:00,69.0,50.0,29.59,WSW,247,9.0,10.0,51,0.00,,,0.00,Rainwise IP-100,2013-09-18 21:03:00,
2013-09-18 17:06:00,69.0,53.0,29.59,SW,225,8.0,11.0,56,0.00,,,0.00,Rainwise IP-100,2013-09-18 21:06:00,
2013-09-18 17:11:00,69.0,53.0,29.59,SW,225,8.0,11.0,56,0.00,,,0.00,Rainwise IP-100,2013-09-18 21:11:00,
2013-09-18 17:15:00,69.0,53.0,29.59,SW,225,8.0,11.0,56,0.00,,,0.00,Rainwise IP-100,2013-09-18 21:15:00,
2013-09-18 17:19:00,68.0,53.0,29.59,West,270,5.0,11.0,60,0.00,,,0.00,Rainwise IP-100,2013-09-18 21:19:00,
2013-09-18 17:22:00,68.0,53.0,29.59,West,270,5.0,11.0,60,0.00,,,0.00,Rainwise IP-100,2013-09-18 21:22:00,
2013-09-18 17:27:00,68.0,53.0,29.59,West,270,5.0,7.0,60,0.00,,,0.00,Rainwise IP-100,2013-09-18 21:27:00,
2013-09-18 17:32:00,68.0,53.0,29.59,West,270,5.0,7.0,60,0.00,,,0.00,Rainwise IP-100,2013-09-18 21:32:00,
2013-09-18 17:37:00,67.0,51.0,29.59,West,270,3.0,7.0,57,0.00,,,0.00,Rainwise IP-100,2013-09-18 21:37:00,
2013-09-18 17:42:00,67.0,54.0,29.59,West,270,4.0,6.0,64,0.00,,,0.00,Rainwise IP-100,2013-09-18 21:42:00,
2013-09-18 17:47:00,67.0,54.0,29.59,West,270,4.0,6.0,64,0.00,,,0.00,Rainwise IP-100,2013-09-18 21:47:00,
2013-09-18 17:50:00,67.0,54.0,29.59,West,270,4.0,4.0,64,0.00,,,0.00,Rainwise IP-100,2013-09-18 21:50:00,
2013-09-18 17:51:00,67.0,54.0,29.59,West,270,4.0,4.0,64,0.00,,,0.00,Rainwise IP-100,2013-09-18 21:51:00,
2013-09-18 17:52:00,67.0,54.0,29.59,West,270,3.0,4.0,64,0.00,,,0.00,Rainwise IP-100,2013-09-18 21:52:00,
2013-09-18 17:56:00,67.0,54.0,29.59,West,270,3.0,4.0,64,0.00,,,0.00,Rainwise IP-100,2013-09-18 21:56:00,
2013-09-18 17:57:00,67.0,54.0,29.59,West,270,4.0,4.0,64,0.00,,,0.00,Rainwise IP-100,2013-09-18 21:57:00,
2013-09-18 17:58:00,67.0,54.0,29.59,West,270,3.0,4.0,64,0.00,,,0.00,Rainwise IP-100,2013-09-18 21:58:00,
2013-09-18 18:01:00,67.0,54.0,29.59,West,270,4.0,4.0,64,0.00,,,0.00,Rainwise IP-100,2013-09-18 22:01:00,
2013-09-18 18:02:00,67.0,54.0,29.59,West,270,3.0,4.0,64,0.00,,,0.00,Rainwise IP-100,2013-09-18 22:02:00,
2013-09-18 18:06:00,64.0,52.0,29.58,West,270,5.0,7.0,65,0.00,,,0.00,Rainwise IP-100,2013-09-18 22:06:00,
2013-09-18 18:07:00,64.0,52.0,29.58,West,270,7.0,7.0,65,0.00,,,0.00,Rainwise IP-100,2013-09-18 22:07:00,
2013-09-18 18:08:00,64.0,52.0,29.58,West,270,3.0,7.0,65,0.00,,,0.00,Rainwise IP-100,2013-09-18 22:08:00,
2013-09-18 18:11:00,63.0,53.0,29.57,West,270,2.0,10.0,69,0.00,,,0.00,Rainwise IP-100,2013-09-18 22:11:00,
2013-09-18 18:13:00,63.0,53.0,29.57,West,270,0.0,10.0,69,0.00,,,0.00,Rainwise IP-100,2013-09-18 22:13:00,
2013-09-18 18:15:00,63.0,53.0,29.57,West,270,0.0,10.0,69,0.00,,,0.00,Rainwise IP-100,2013-09-18 22:15:00,
2013-09-18 18:20:00,62.0,52.0,29.57,SW,225,0.0,2.0,70,0.00,,,0.00,Rainwise IP-100,2013-09-18 22:20:00,
2013-09-18 18:25:00,62.0,52.0,29.57,SW,225,0.0,0.0,70,0.00,,,0.00,Rainwise IP-100,2013-09-18 22:25:00,
2013-09-18 18:30:00,61.0,51.0,29.56,West,270,3.0,3.0,71,0.00,,,0.00,Rainwise IP-100,2013-09-18 22:30:00,
2013-09-18 18:35:00,61.0,51.0,29.56,West,270,3.0,3.0,71,0.00,,,0.00,Rainwise IP-100,2013-09-18 22:35:00,
2013-09-18 18:40:00,61.0,51.0,29.56,West,270,3.0,3.0,71,0.00,,,0.00,Rainwise IP-100,2013-09-18 22:40:00,
2013-09-18 18:45:00,61.0,51.0,29.56,West,270,3.0,3.0,71,0.00,,,0.00,Rainwise IP-100,2013-09-18 22:45:00,
2013-09-18 18:50:00,61.0,51.0,29.56,West,270,3.0,3.0,71,0.00,,,0.00,Rainwise IP-100,2013-09-18 22:50:00,
2013-09-18 18:55:00,61.0,51.0,29.56,West,270,3.0,3.0,71,0.00,,,0.00,Rainwise IP-100,2013-09-18 22:55:00,
2013-09-18 19:00:00,61.0,51.0,29.56,West,270,3.0,3.0,71,0.00,,,0.00,Rainwise IP-100,2013-09-18 23:00:00,
2013-09-18 19:05:00,61.0,51.0,29.56,West,270,3.0,3.0,71,0.00,,,0.00,Rainwise IP-100,2013-09-18 23:05:00,
2013-09-18 19:10:00,61.0,51.0,29.56,West,270,3.0,3.0,71,0.00,,,0.00,Rainwise IP-100,2013-09-18 23:10:00,
2013-09-18 19:15:00,56.0,50.0,29.55,West,270,0.0,3.0,81,0.00,,,0.00,Rainwise IP-100,2013-09-18 23:15:00,
2013-09-18 19:20:00,56.0,50.0,29.55,West,270,0.0,0.0,81,0.00,,,0.00,Rainwise IP-100,2013-09-18 23:20:00,
2013-09-18 19:25:00,56.0,50.0,29.55,West,270,0.0,0.0,81,0.00,,,0.00,Rainwise IP-100,2013-09-18 23:25:00,
2013-09-18 19:30:00,56.0,50.0,29.55,West,270,0.0,0.0,81,0.00,,,0.00,Rainwise IP-100,2013-09-18 23:30:00,
2013-09-18 19:35:00,54.0,50.0,29.55,NNE,22,1.0,0.0,86,0.00,,,0.00,Rainwise IP-100,2013-09-18 23:35:00,
2013-09-18 19:40:00,54.0,50.0,29.55,NNE,22,3.0,3.0,87,0.00,,,0.00,Rainwise IP-100,2013-09-18 23:40:00,
2013-09-18 19:45:00,54.0,50.0,29.55,NNE,22,3.0,3.0,87,0.00,,,0.00,Rainwise IP-100,2013-09-18 23:45:00,
2013-09-18 19:50:00,53.0,49.0,29.55,NNE,22,0.0,3.0,87,0.00,,,0.00,Rainwise IP-100,2013-09-18 23:50:00,
2013-09-18 19:55:00,53.0,49.0,29.55,NNE,22,0.0,0.0,88,0.00,,,0.00,Rainwise IP-100,2013-09-18 23:55:00,
2013-09-18 20:00:00,53.0,50.0,29.55,NNE,22,1.0,3.0,89,0.00,,,0.00,Rainwise IP-100,2013-09-19 00:00:00,
2013-09-18 20:01:00,53.0,50.0,29.55,NNE,22,2.0,3.0,89,0.00,,,0.00,Rainwise IP-100,2013-09-19 00:01:00,
2013-09-18 20:06:00,52.0,49.0,29.55,NNE,22,0.0,3.0,91,0.00,,,0.00,Rainwise IP-100,2013-09-19 00:06:00,
2013-09-18 20:11:00,52.0,49.0,29.55,NNE,22,0.0,1.0,91,0.00,,,0.00,Rainwise IP-100,2013-09-19 00:11:00,
2013-09-18 20:13:00,52.0,49.0,29.55,NNE,22,0.0,0.0,91,0.00,,,0.00,Rainwise IP-100,2013-09-19 00:13:00,
2013-09-18 20:52:00,52.0,50.0,29.54,NNE,22,3.0,0.0,95,0.00,,,0.00,Rainwise IP-100,2013-09-19 00:52:00,
2013-09-18 20:56:00,52.0,50.0,29.54,NNE,22,2.0,3.0,95,0.00,,,0.00,Rainwise IP-100,2013-09-19 00:56:00,
2013-09-18 20:57:00,52.0,50.0,29.54,NNE,22,1.0,3.0,95,0.00,,,0.00,Rainwise IP-100,2013-09-19 00:57:00,
2013-09-18 21:02:00,52.0,50.0,29.54,NNE,22,1.0,3.0,95,0.00,,,0.00,Rainwise IP-100,2013-09-19 01:02:00,
2013-09-18 21:07:00,52.0,50.0,29.54,NNE,22,1.0,3.0,95,0.00,,,0.00,Rainwise IP-100,2013-09-19 01:07:00,
2013-09-18 21:10:00,52.0,50.0,29.54,NNE,22,2.0,3.0,95,0.00,,,0.00,Rainwise IP-100,2013-09-19 01:10:00,
2013-09-18 21:15:00,52.0,50.0,29.54,NNE,22,2.0,3.0,95,0.00,,,0.00,Rainwise IP-100,2013-09-19 01:15:00,
2013-09-18 21:20:00,52.0,50.0,29.54,NNE,22,1.0,3.0,95,0.00,,,0.00,Rainwise IP-100,2013-09-19 01:20:00,
2013-09-18 21:25:00,52.0,50.0,29.54,NNE,22,2.0,3.0,95,0.00,,,0.00,Rainwise IP-100,2013-09-19 01:25:00,
2013-09-18 21:26:00,52.0,50.0,29.54,NNE,22,1.0,3.0,95,0.00,,,0.00,Rainwise IP-100,2013-09-19 01:26:00,
2013-09-18 21:31:00,52.0,50.0,29.54,NNE,22,2.0,3.0,95,0.00,,,0.00,Rainwise IP-100,2013-09-19 01:31:00,
2013-09-18 21:35:00,52.0,50.0,29.54,NNE,22,1.0,3.0,95,0.00,,,0.00,Rainwise IP-100,2013-09-19 01:35:00,
2013-09-18 21:36:00,52.0,50.0,29.54,NNE,22,1.0,3.0,95,0.00,,,0.00,Rainwise IP-100,2013-09-19 01:36:00,
2013-09-18 21:41:00,52.0,50.0,29.54,NNE,22,1.0,3.0,95,0.00,,,0.00,Rainwise IP-100,2013-09-19 01:41:00,
2013-09-18 21:46:00,52.0,50.0,29.54,NNE,22,1.0,3.0,95,0.00,,,0.00,Rainwise IP-100,2013-09-19 01:46:00,
2013-09-18 21:48:00,52.0,50.0,29.54,NNE,22,2.0,3.0,95,0.00,,,0.00,Rainwise IP-100,2013-09-19 01:48:00,
2013-09-18 21:51:00,52.0,50.0,29.54,NNE,22,2.0,3.0,95,0.00,,,0.00,Rainwise IP-100,2013-09-19 01:51:00,
2013-09-18 21:56:00,51.0,50.0,29.53,ESE,112,0.0,3.0,97,0.00,,,0.00,Rainwise IP-100,2013-09-19 01:56:00,
2013-09-18 22:00:00,51.0,50.0,29.53,ESE,112,0.0,0.0,97,0.00,,,0.00,Rainwise IP-100,2013-09-19 02:00:00,
2013-09-18 22:02:00,51.0,50.0,29.53,ESE,112,0.0,0.0,97,0.00,,,0.00,Rainwise IP-100,2013-09-19 02:02:00,
2013-09-18 22:07:00,51.0,50.0,29.53,ESE,112,0.0,0.0,97,0.00,,,0.00,Rainwise IP-100,2013-09-19 02:07:00,
2013-09-18 22:10:00,51.0,50.0,29.53,ESE,112,0.0,0.0,97,0.00,,,0.00,Rainwise IP-100,2013-09-19 02:10:00,
2013-09-18 22:11:00,51.0,50.0,29.53,ESE,112,0.0,0.0,97,0.00,,,0.00,Rainwise IP-100,2013-09-19 02:11:00,
2013-09-18 22:16:00,51.0,50.0,29.53,ESE,112,0.0,0.0,97,0.00,,,0.00,Rainwise IP-100,2013-09-19 02:16:00,
2013-09-18 22:20:00,51.0,50.0,29.53,ESE,112,0.0,0.0,97,0.00,,,0.00,Rainwise IP-100,2013-09-19 02:20:00,
2013-09-18 22:25:00,51.0,50.0,29.53,ESE,112,0.0,0.0,97,0.00,,,0.00,Rainwise IP-100,2013-09-19 02:25:00,
2013-09-18 22:30:00,51.0,50.0,29.53,ESE,112,0.0,0.0,97,0.00,,,0.00,Rainwise IP-100,2013-09-19 02:30:00,
2013-09-18 22:35:00,51.0,50.0,29.53,ESE,112,0.0,0.0,97,0.00,,,0.00,Rainwise IP-100,2013-09-19 02:35:00,
2013-09-18 22:40:00,51.0,50.0,29.53,ESE,112,0.0,0.0,97,0.00,,,0.00,Rainwise IP-100,2013-09-19 02:40:00,
2013-09-18 22:45:00,51.0,50.0,29.53,ESE,112,0.0,0.0,97,0.00,,,0.00,Rainwise IP-100,2013-09-19 02:45:00,
2013-09-18 22:50:00,51.0,50.0,29.53,ESE,112,0.0,0.0,97,0.00,,,0.00,Rainwise IP-100,2013-09-19 02:50:00,
2013-09-18 22:53:00,51.0,50.0,29.53,ESE,112,0.0,0.0,97,0.00,,,0.00,Rainwise IP-100,2013-09-19 02:53:00,
2013-09-18 22:56:00,51.0,50.0,29.53,ESE,112,0.0,0.0,97,0.00,,,0.00,Rainwise IP-100,2013-09-19 02:56:00,
2013-09-18 22:59:00,51.0,50.0,29.53,ESE,112,0.0,0.0,97,0.00,,,0.00,Rainwise IP-100,2013-09-19 02:59:00,
2013-09-18 23:00:00,51.0,50.0,29.53,ESE,112,0.0,0.0,97,0.00,,,0.00,Rainwise IP-100,2013-09-19 03:00:00,
2013-09-18 23:05:00,51.0,50.0,29.53,ESE,112,0.0,0.0,97,0.00,,,0.00,Rainwise IP-100,2013-09-19 03:05:00,
2013-09-18 23:10:00,51.0,50.0,29.53,ESE,112,0.0,0.0,97,0.00,,,0.00,Rainwise IP-100,2013-09-19 03:10:00,
2013-09-18 23:13:00,51.0,50.0,29.53,ESE,112,0.0,0.0,97,0.00,,,0.00,Rainwise IP-100,2013-09-19 03:13:00,
2013-09-18 23:15:00,51.0,50.0,29.53,ESE,112,0.0,0.0,97,0.00,,,0.00,Rainwise IP-100,2013-09-19 03:15:00,
2013-09-18 23:20:00,51.0,50.0,29.53,ESE,112,0.0,0.0,97,0.00,,,0.00,Rainwise IP-100,2013-09-19 03:20:00,
2013-09-18 23:21:00,51.0,50.0,29.53,ESE,112,0.0,0.0,97,0.00,,,0.00,Rainwise IP-100,2013-09-19 03:21:00,
2013-09-18 23:26:00,51.0,50.0,29.53,ESE,112,0.0,0.0,97,0.00,,,0.00,Rainwise IP-100,2013-09-19 03:26:00,
2013-09-18 23:27:00,51.0,50.0,29.53,ESE,112,0.0,0.0,97,0.00,,,0.00,Rainwise IP-100,2013-09-19 03:27:00,
2013-09-18 23:31:00,51.0,50.0,29.53,ESE,112,0.0,0.0,97,0.00,,,0.00,Rainwise IP-100,2013-09-19 03:31:00,
2013-09-18 23:35:00,51.0,50.0,29.53,ESE,112,0.0,0.0,97,0.00,,,0.00,Rainwise IP-100,2013-09-19 03:35:00,
2013-09-18 23:37:00,51.0,50.0,29.53,ESE,112,0.0,0.0,97,0.00,,,0.00,Rainwise IP-100,2013-09-19 03:37:00,
2013-09-18 23:42:00,51.0,50.0,29.53,ESE,112,0.0,0.0,97,0.00,,,0.00,Rainwise IP-100,2013-09-19 03:42:00,
2013-09-18 23:45:00,51.0,50.0,29.53,ESE,112,0.0,0.0,97,0.00,,,0.00,Rainwise IP-100,2013-09-19 03:45:00,
2013-09-18 23:47:00,51.0,50.0,29.53,ESE,112,0.0,0.0,97,0.00,,,0.00,Rainwise IP-100,2013-09-19 03:47:00,
2013-09-18 23:50:00,51.0,50.0,29.53,ESE,112,0.0,0.0,97,0.00,,,0.00,Rainwise IP-100,2013-09-19 03:50:00,
2013-09-18 23:55:00,51.0,50.0,29.53,ESE,112,0.0,0.0,97,0.00,,,0.00,Rainwise IP-100,2013-09-19 03:55:00,
2013-09-18 23:56:00,51.0,50.0,29.53,ESE,112,0.0,0.0,97,0.00,,,0.00,Rainwise IP-100,2013-09-19 03:56:00,
2013-09-18 23:57:00,51.0,50.0,29.53,ESE,112,0.0,0.0,97,0.00,,,0.00,Rainwise IP-100,2013-09-19 03:57:00,